createdAt,value
2019-02-17T00:01:31.761Z,11.43
2019-02-17T00:03:58.075Z,11.41
2019-02-17T00:06:24.381Z,11.38
2019-02-17T00:08:50.699Z,11.34
2019-02-17T00:11:17.015Z,11.32
2019-02-17T00:13:43.332Z,11.29
2019-02-17T00:16:09.637Z,11.28
2019-02-17T00:18:35.944Z,11.28
2019-02-17T00:21:02.253Z,11.24
2019-02-17T00:23:28.560Z,11.23
2019-02-17T00:25:54.874Z,11.21
2019-02-17T00:28:21.190Z,11.17
2019-02-17T00:30:47.506Z,11.17
2019-02-17T00:33:13.816Z,11.15
2019-02-17T00:35:40.128Z,11.14
2019-02-17T00:38:06.439Z,11.12
2019-02-17T00:40:32.759Z,11.11
2019-02-17T00:42:59.089Z,11.07
2019-02-17T00:45:25.399Z,11.03
2019-02-17T00:47:51.713Z,11.02
2019-02-17T00:50:18.025Z,10.99
2019-02-17T00:52:44.342Z,10.98
2019-02-17T00:55:10.656Z,10.98
2019-02-17T00:57:36.966Z,10.95
2019-02-17T01:00:03.288Z,10.93
2019-02-17T01:02:29.599Z,10.92
2019-02-17T01:04:55.926Z,10.91
2019-02-17T01:07:22.235Z,10.88
2019-02-17T01:09:48.553Z,10.83
2019-02-17T01:12:14.863Z,10.80
2019-02-17T01:14:41.178Z,10.82
2019-02-17T01:17:07.484Z,10.78
2019-02-17T01:19:33.834Z,10.76
2019-02-17T01:22:00.143Z,10.77
2019-02-17T01:24:26.455Z,10.74
2019-02-17T01:26:52.756Z,10.72
2019-02-17T01:29:20.777Z,10.70
2019-02-17T01:31:45.373Z,10.69
2019-02-17T01:34:11.683Z,10.66
2019-02-17T01:36:37.990Z,10.56
2019-02-17T01:39:04.298Z,10.52
2019-02-17T01:41:30.596Z,10.48
2019-02-17T01:43:56.900Z,10.44
2019-02-17T01:46:23.213Z,10.40
2019-02-17T01:48:49.518Z,10.38
2019-02-17T01:51:15.826Z,10.37
2019-02-17T01:53:42.133Z,10.34
2019-02-17T01:56:08.454Z,10.31
2019-02-17T01:58:34.759Z,10.30
2019-02-17T02:01:01.076Z,10.29
2019-02-17T02:03:27.377Z,10.27
2019-02-17T02:05:53.689Z,10.24
2019-02-17T02:08:19.996Z,10.22
2019-02-17T02:10:46.310Z,10.20
2019-02-17T02:13:12.612Z,10.20
2019-02-17T02:15:38.920Z,10.18
2019-02-17T02:18:05.225Z,10.16
2019-02-17T02:20:31.575Z,10.13
2019-02-17T02:22:57.887Z,10.11
2019-02-17T02:25:24.215Z,10.11
2019-02-17T02:27:50.557Z,10.10
2019-02-17T02:30:16.973Z,10.07
2019-02-17T02:32:43.289Z,10.06
2019-02-17T02:35:09.602Z,10.03
2019-02-17T02:37:35.900Z,9.99
2019-02-17T02:40:02.214Z,9.97
2019-02-17T02:42:28.538Z,9.98
2019-02-17T02:44:54.843Z,9.98
2019-02-17T02:47:21.159Z,9.95
2019-02-17T02:49:47.454Z,9.94
2019-02-17T02:52:13.765Z,9.91
2019-02-17T02:54:40.077Z,9.90
2019-02-17T02:57:06.388Z,9.89
2019-02-17T02:59:32.704Z,9.89
2019-02-17T03:01:59.004Z,9.85
2019-02-17T03:04:25.313Z,9.85
2019-02-17T03:06:51.630Z,9.83
2019-02-17T03:09:17.947Z,9.81
2019-02-17T03:11:44.255Z,9.79
2019-02-17T03:14:10.557Z,9.79
2019-02-17T03:16:36.867Z,9.76
2019-02-17T03:19:03.182Z,9.74
2019-02-17T03:21:29.484Z,9.71
2019-02-17T03:23:55.784Z,9.70
2019-02-17T03:26:22.093Z,9.69
2019-02-17T03:28:48.400Z,9.68
2019-02-17T03:31:14.705Z,9.67
2019-02-17T03:33:41.010Z,9.66
2019-02-17T03:36:07.316Z,9.64
2019-02-17T03:38:33.620Z,9.63
2019-02-17T03:40:59.986Z,9.61
2019-02-17T03:43:26.292Z,9.60
2019-02-17T03:45:52.601Z,9.57
2019-02-17T03:48:18.905Z,9.56
2019-02-17T03:50:45.209Z,9.54
2019-02-17T03:53:11.517Z,9.55
2019-02-17T03:55:37.822Z,9.52
2019-02-17T03:58:04.132Z,9.51
2019-02-17T04:00:30.437Z,9.48
2019-02-17T04:02:56.741Z,9.49
2019-02-17T04:05:23.048Z,9.47
2019-02-17T04:07:49.358Z,9.42
2019-02-17T04:10:15.666Z,9.43
2019-02-17T04:12:41.977Z,9.43
2019-02-17T04:15:08.285Z,9.39
2019-02-17T04:17:34.599Z,9.39
2019-02-17T04:20:00.913Z,9.36
2019-02-17T04:22:27.219Z,9.32
2019-02-17T04:24:53.526Z,9.31
2019-02-17T04:27:19.833Z,9.31
2019-02-17T04:29:46.137Z,9.27
2019-02-17T04:32:12.448Z,9.27
2019-02-17T04:34:38.759Z,9.26
2019-02-17T04:37:05.111Z,9.24
2019-02-17T04:39:31.425Z,9.24
2019-02-17T04:41:57.731Z,9.21
2019-02-17T04:44:24.034Z,9.22
2019-02-17T04:46:50.342Z,9.22
2019-02-17T04:49:16.676Z,9.20
2019-02-17T04:51:42.953Z,9.19
2019-02-17T04:54:09.266Z,9.18
2019-02-17T04:56:35.573Z,9.18
2019-02-17T04:59:01.893Z,9.16
2019-02-17T05:01:28.204Z,9.13
2019-02-17T05:03:54.527Z,9.10
2019-02-17T05:06:20.845Z,9.10
2019-02-17T05:08:47.127Z,9.04
2019-02-17T05:11:13.435Z,9.08
2019-02-17T05:13:39.825Z,9.07
2019-02-17T05:16:06.126Z,9.06
2019-02-17T05:18:32.461Z,9.04
2019-02-17T05:20:58.773Z,9.02
2019-02-17T05:23:25.080Z,9.01
2019-02-17T05:25:51.389Z,9.01
2019-02-17T05:28:17.750Z,9.03
2019-02-17T05:30:52.289Z,9.00
2019-02-17T05:33:10.320Z,9.01
2019-02-17T05:35:36.625Z,9.01
2019-02-17T05:38:02.927Z,9.03
2019-02-17T05:40:29.238Z,9.03
2019-02-17T05:42:55.541Z,9.06
2019-02-17T05:45:21.857Z,9.09
2019-02-17T05:47:48.159Z,9.12
2019-02-17T05:50:14.528Z,9.15
2019-02-17T05:52:40.920Z,9.21
2019-02-17T05:55:07.237Z,9.26
2019-02-17T05:57:33.565Z,9.36
2019-02-17T05:59:59.869Z,9.44
2019-02-17T06:02:26.178Z,9.55
2019-02-17T06:04:52.481Z,9.65
2019-02-17T06:07:18.787Z,9.75
2019-02-17T06:09:45.263Z,9.87
2019-02-17T06:12:11.579Z,10.00
2019-02-17T06:14:37.895Z,10.15
2019-02-17T06:17:04.213Z,10.31
2019-02-17T06:19:30.520Z,10.47
2019-02-17T06:21:56.832Z,10.60
2019-02-17T06:24:23.143Z,10.78
2019-02-17T06:26:49.456Z,10.94
2019-02-17T06:29:15.761Z,11.10
2019-02-17T06:31:42.073Z,11.26
2019-02-17T06:34:08.377Z,11.43
2019-02-17T06:36:34.687Z,11.60
2019-02-17T06:39:01.000Z,11.76
2019-02-17T06:41:27.319Z,11.95
2019-02-17T06:43:53.631Z,12.12
2019-02-17T06:46:19.944Z,12.29
2019-02-17T06:48:46.253Z,12.46
2019-02-17T06:51:12.561Z,12.64
2019-02-17T06:53:38.882Z,12.81
2019-02-17T06:56:05.186Z,12.98
2019-02-17T06:58:31.516Z,13.15
2019-02-17T07:00:57.821Z,13.32
2019-02-17T07:03:24.129Z,13.49
2019-02-17T07:05:50.475Z,13.95
2019-02-17T07:08:16.782Z,14.66
2019-02-17T07:10:43.088Z,15.20
2019-02-17T07:13:09.392Z,15.63
2019-02-17T07:15:35.699Z,16.06
2019-02-17T07:18:02.024Z,16.49
2019-02-17T07:20:28.319Z,16.69
2019-02-17T07:22:54.631Z,16.90
2019-02-17T07:25:29.584Z,17.18
2019-02-17T07:27:47.335Z,17.22
2019-02-17T07:30:13.581Z,17.42
2019-02-17T07:32:39.898Z,17.61
2019-02-17T07:35:06.218Z,17.82
2019-02-17T07:37:33.764Z,18.01
2019-02-17T07:39:58.839Z,18.21
2019-02-17T07:42:25.155Z,18.45
2019-02-17T07:44:51.456Z,18.62
2019-02-17T07:47:18.150Z,18.82
2019-02-17T07:49:44.097Z,19.02
2019-02-17T07:52:10.405Z,19.22
2019-02-17T07:54:36.713Z,19.41
2019-02-17T07:57:03.028Z,19.59
2019-02-17T07:59:29.337Z,19.79
2019-02-17T08:01:55.647Z,19.97
2019-02-17T08:04:21.967Z,20.19
2019-02-17T08:06:48.268Z,20.45
2019-02-17T08:09:14.584Z,20.64
2019-02-17T08:11:40.893Z,20.81
2019-02-17T08:14:07.200Z,21.05
2019-02-17T08:16:33.519Z,21.24
2019-02-17T08:18:59.823Z,21.41
2019-02-17T08:21:26.129Z,21.60
2019-02-17T08:23:52.446Z,21.82
2019-02-17T08:26:18.752Z,22.04
2019-02-17T08:28:45.073Z,22.22
2019-02-17T08:31:11.387Z,22.46
2019-02-17T08:33:37.716Z,22.65
2019-02-17T08:36:04.022Z,22.88
2019-02-17T08:38:30.335Z,23.08
2019-02-17T08:40:56.652Z,23.28
2019-02-17T08:43:22.979Z,23.46
2019-02-17T08:45:49.301Z,23.67
2019-02-17T08:48:15.619Z,23.87
2019-02-17T08:50:41.934Z,24.05
2019-02-17T08:53:08.245Z,24.23
2019-02-17T08:55:34.550Z,24.41
2019-02-17T08:58:00.864Z,24.54
2019-02-17T09:00:27.177Z,24.65
2019-02-17T09:02:53.497Z,24.80
2019-02-17T09:05:19.816Z,24.97
2019-02-17T09:07:46.122Z,25.13
2019-02-17T09:10:12.435Z,25.28
2019-02-17T09:12:38.750Z,25.41
2019-02-17T09:15:05.093Z,25.58
2019-02-17T09:17:31.405Z,25.69
2019-02-17T09:19:57.723Z,25.96
2019-02-17T09:22:24.093Z,26.14
2019-02-17T09:24:50.406Z,26.31
2019-02-17T09:27:16.716Z,26.48
2019-02-17T09:29:43.038Z,26.61
2019-02-17T09:32:16.009Z,26.75
2019-02-17T09:34:35.669Z,26.92
2019-02-17T09:37:01.984Z,27.08
2019-02-17T09:39:28.296Z,27.23
2019-02-17T09:41:54.615Z,27.37
2019-02-17T09:44:20.937Z,27.52
2019-02-17T09:46:47.241Z,27.63
2019-02-17T09:49:13.551Z,27.71
2019-02-17T09:51:39.865Z,27.84
2019-02-17T09:54:06.171Z,27.94
2019-02-17T09:56:32.491Z,28.00
2019-02-17T09:58:58.805Z,27.91
2019-02-17T10:01:25.121Z,27.14
2019-02-17T10:03:51.431Z,26.94
2019-02-17T10:06:17.742Z,26.86
2019-02-17T10:08:44.064Z,27.25
2019-02-17T10:11:10.381Z,27.66
2019-02-17T10:13:36.686Z,27.99
2019-02-17T10:16:03.051Z,27.93
2019-02-17T10:18:29.387Z,27.73
2019-02-17T10:20:55.701Z,27.84
2019-02-17T10:23:22.020Z,28.15
2019-02-17T10:25:48.333Z,28.38
2019-02-17T10:28:14.651Z,28.52
2019-02-17T10:30:40.959Z,28.22
2019-02-17T10:33:07.265Z,25.67
2019-02-17T10:35:33.572Z,24.44
2019-02-17T10:37:59.879Z,23.64
2019-02-17T10:40:26.208Z,23.10
2019-02-17T10:42:52.520Z,22.76
2019-02-17T10:45:18.843Z,22.68
2019-02-17T10:47:45.153Z,22.89
2019-02-17T10:50:11.471Z,22.75
2019-02-17T10:52:37.782Z,22.66
2019-02-17T10:55:04.102Z,22.79
2019-02-17T10:57:30.413Z,22.90
2019-02-17T10:59:56.735Z,22.78
2019-02-17T11:02:23.038Z,22.56
2019-02-17T11:04:49.351Z,22.61
2019-02-17T11:07:15.664Z,22.67
2019-02-17T11:09:41.974Z,23.02
2019-02-17T11:12:08.288Z,23.21
2019-02-17T11:14:34.605Z,23.18
2019-02-17T11:17:00.921Z,23.24
2019-02-17T11:19:27.261Z,23.29
2019-02-17T11:21:53.564Z,23.43
2019-02-17T11:24:19.871Z,23.49
2019-02-17T11:26:46.179Z,23.54
2019-02-17T11:29:12.493Z,23.42
2019-02-17T11:31:38.795Z,23.25
2019-02-17T11:34:05.106Z,23.14
2019-02-17T11:36:31.421Z,23.04
2019-02-17T11:38:57.729Z,23.07
2019-02-17T11:41:24.042Z,23.26
2019-02-17T11:43:50.343Z,23.14
2019-02-17T11:46:16.656Z,23.08
2019-02-17T11:48:42.963Z,23.26
2019-02-17T11:51:09.277Z,23.41
2019-02-17T11:53:35.583Z,23.44
2019-02-17T11:56:01.912Z,23.53
2019-02-17T11:58:28.222Z,23.54
2019-02-17T12:00:54.531Z,23.38
2019-02-17T12:03:20.855Z,23.33
2019-02-17T12:05:47.177Z,23.41
2019-02-17T12:08:13.485Z,23.39
2019-02-17T12:10:39.792Z,23.31
2019-02-17T12:13:06.104Z,23.14
2019-02-17T12:15:32.413Z,23.18
2019-02-17T12:17:59.361Z,23.30
2019-02-17T12:20:25.046Z,23.30
2019-02-17T12:22:51.357Z,23.23
2019-02-17T12:25:17.670Z,23.22
2019-02-17T12:27:43.983Z,23.25
2019-02-17T12:30:10.287Z,23.14
2019-02-17T12:32:36.597Z,23.13
2019-02-17T12:35:02.907Z,23.12
2019-02-17T12:37:29.212Z,23.03
2019-02-17T12:39:55.525Z,22.97
2019-02-17T12:42:21.831Z,22.96
2019-02-17T12:44:48.136Z,22.85
2019-02-17T12:47:14.444Z,22.72
2019-02-17T12:49:40.757Z,22.70
2019-02-17T12:52:07.069Z,22.71
2019-02-17T12:54:33.377Z,22.70
2019-02-17T12:56:59.695Z,22.75
2019-02-17T12:59:26.003Z,22.78
2019-02-17T13:01:52.316Z,22.78
2019-02-17T13:04:18.619Z,22.58
2019-02-17T13:06:44.929Z,22.48
2019-02-17T13:09:11.235Z,22.31
2019-02-17T13:11:37.561Z,22.30
2019-02-17T13:14:03.864Z,22.34
2019-02-17T13:16:30.190Z,22.32
2019-02-17T13:18:56.500Z,22.25
2019-02-17T13:21:22.806Z,22.65
2019-02-17T13:23:49.112Z,23.16
2019-02-17T13:26:15.424Z,23.42
2019-02-17T13:28:41.733Z,23.61
2019-02-17T13:31:08.035Z,23.75
2019-02-17T13:33:39.283Z,23.86
2019-02-17T13:36:00.658Z,23.95
2019-02-17T13:38:26.965Z,24.00
2019-02-17T13:40:53.271Z,24.04
2019-02-17T13:43:19.584Z,24.05
2019-02-17T13:45:45.898Z,24.05
2019-02-17T13:48:12.204Z,24.05
2019-02-17T13:50:38.514Z,24.02
2019-02-17T13:53:11.794Z,23.99
2019-02-17T13:55:31.148Z,23.95
2019-02-17T13:58:00.490Z,23.88
2019-02-17T14:00:26.798Z,23.82
2019-02-17T14:02:53.111Z,23.75
2019-02-17T14:05:19.421Z,23.66
2019-02-17T14:07:46.055Z,23.53
2019-02-17T14:10:12.050Z,23.39
2019-02-17T14:12:38.367Z,23.26
2019-02-17T14:15:04.680Z,23.12
2019-02-17T14:17:30.987Z,23.05
2019-02-17T14:19:57.291Z,22.97
2019-02-17T14:22:23.599Z,22.89
2019-02-17T14:24:49.925Z,22.80
2019-02-17T14:27:16.237Z,22.72
2019-02-17T14:29:42.540Z,22.64
2019-02-17T14:32:08.882Z,22.57
2019-02-17T14:34:35.195Z,22.55
2019-02-17T14:37:01.511Z,22.53
2019-02-17T14:39:27.823Z,22.50
2019-02-17T14:41:54.133Z,22.46
2019-02-17T14:44:20.446Z,22.41
2019-02-17T14:46:46.779Z,22.36
2019-02-17T14:49:13.093Z,22.32
2019-02-17T14:51:39.423Z,22.27
2019-02-17T14:54:06.723Z,22.23
2019-02-17T14:56:32.033Z,22.16
2019-02-17T14:58:58.336Z,22.11
2019-02-17T15:01:24.646Z,22.05
2019-02-17T15:03:50.954Z,21.97
2019-02-17T15:06:17.301Z,21.96
2019-02-17T15:08:43.612Z,21.92
2019-02-17T15:11:09.931Z,21.90
2019-02-17T15:13:36.264Z,21.83
2019-02-17T15:16:02.573Z,21.81
2019-02-17T15:18:28.881Z,21.76
2019-02-17T15:20:55.183Z,21.71
2019-02-17T15:23:21.500Z,21.68
2019-02-17T15:25:47.996Z,21.64
2019-02-17T15:28:14.113Z,21.60
2019-02-17T15:30:40.422Z,21.57
2019-02-17T15:33:06.728Z,21.50
2019-02-17T15:35:33.038Z,21.44
2019-02-17T15:37:59.352Z,21.40
2019-02-17T15:40:25.664Z,21.34
2019-02-17T15:42:51.971Z,21.26
2019-02-17T15:45:18.317Z,21.23
2019-02-17T15:47:44.696Z,21.18
2019-02-17T15:50:10.923Z,21.12
2019-02-17T15:52:37.227Z,21.08
2019-02-17T15:55:03.573Z,21.02
2019-02-17T15:57:29.883Z,20.95
2019-02-17T15:59:56.194Z,20.92
2019-02-17T16:02:22.510Z,20.87
2019-02-17T16:04:48.821Z,20.83
2019-02-17T16:07:15.129Z,20.79
2019-02-17T16:09:41.431Z,20.73
2019-02-17T16:12:07.744Z,20.68
2019-02-17T16:14:34.057Z,20.63
2019-02-17T16:17:00.376Z,20.62
2019-02-17T16:19:26.689Z,20.56
2019-02-17T16:21:53.015Z,20.53
2019-02-17T16:24:19.329Z,20.46
2019-02-17T16:26:45.637Z,20.43
2019-02-17T16:29:11.952Z,20.39
2019-02-17T16:31:38.265Z,20.33
2019-02-17T16:34:04.576Z,20.27
2019-02-17T16:36:30.883Z,20.23
2019-02-17T16:38:57.193Z,20.19
2019-02-17T16:41:23.501Z,20.15
2019-02-17T16:43:49.853Z,20.14
2019-02-17T16:46:16.126Z,20.18
2019-02-17T16:48:42.431Z,20.11
2019-02-17T16:51:08.740Z,20.00
2019-02-17T16:53:35.187Z,19.90
2019-02-17T16:56:03.839Z,19.81
2019-02-17T16:58:30.145Z,19.74
2019-02-17T17:00:56.507Z,19.67
2019-02-17T17:03:22.792Z,19.59
2019-02-17T17:05:49.105Z,19.52
2019-02-17T17:08:15.413Z,19.45
2019-02-17T17:10:41.723Z,19.39
2019-02-17T17:13:08.031Z,19.33
2019-02-17T17:15:34.340Z,19.27
2019-02-17T17:18:00.648Z,19.23
2019-02-17T17:20:26.963Z,19.18
2019-02-17T17:22:53.282Z,19.12
2019-02-17T17:25:19.600Z,19.06
2019-02-17T17:27:45.894Z,19.03
2019-02-17T17:30:12.248Z,18.98
2019-02-17T17:32:38.562Z,18.92
2019-02-17T17:35:04.883Z,18.94
2019-02-17T17:37:31.193Z,18.97
2019-02-17T17:39:57.507Z,18.91
2019-02-17T17:42:23.812Z,18.84
2019-02-17T17:44:50.114Z,18.76
2019-02-17T17:47:16.450Z,18.69
2019-02-17T17:49:42.759Z,18.64
2019-02-17T17:52:09.080Z,18.64
2019-02-17T17:54:35.407Z,18.60
2019-02-17T17:57:01.722Z,18.55
2019-02-17T17:59:30.056Z,18.51
2019-02-17T18:01:54.608Z,18.53
2019-02-17T18:04:20.917Z,18.59
2019-02-17T18:06:47.232Z,18.55
2019-02-17T18:09:13.541Z,18.46
2019-02-17T18:11:39.843Z,18.37
2019-02-17T18:14:06.152Z,18.32
2019-02-17T18:16:32.468Z,18.25
2019-02-17T18:18:58.777Z,18.20
2019-02-17T18:21:25.156Z,18.15
2019-02-17T18:23:51.513Z,18.10
2019-02-17T18:26:17.824Z,18.10
2019-02-17T18:28:46.883Z,18.21
2019-02-17T18:31:13.191Z,18.16
2019-02-17T18:33:39.495Z,18.09
2019-02-17T18:36:05.808Z,18.03
2019-02-17T18:38:32.118Z,17.97
2019-02-17T18:40:58.431Z,17.91
2019-02-17T18:43:24.735Z,17.82
2019-02-17T18:45:51.044Z,17.79
2019-02-17T18:48:17.349Z,17.74
2019-02-17T18:50:46.066Z,17.68
2019-02-17T18:53:12.375Z,17.64
2019-02-17T18:55:38.683Z,17.60
2019-02-17T18:58:05.034Z,17.57
2019-02-17T19:00:31.335Z,17.54
2019-02-17T19:02:57.643Z,17.48
2019-02-17T19:05:31.530Z,17.43
2019-02-17T19:07:53.066Z,17.38
2019-02-17T19:10:19.380Z,17.35
2019-02-17T19:12:45.656Z,17.34
2019-02-17T19:15:11.957Z,17.30
2019-02-17T19:17:38.264Z,17.25
2019-02-17T19:20:04.570Z,17.21
2019-02-17T19:22:30.876Z,17.20
2019-02-17T19:24:57.199Z,17.17
2019-02-17T19:27:23.707Z,17.15
2019-02-17T19:29:50.024Z,17.12
2019-02-17T19:32:16.409Z,17.06
2019-02-17T19:34:42.720Z,17.02
2019-02-17T19:37:09.048Z,17.00
2019-02-17T19:39:35.350Z,16.96
2019-02-17T19:42:01.660Z,16.92
2019-02-17T19:44:27.963Z,16.87
2019-02-17T19:46:54.366Z,16.83
2019-02-17T19:49:20.676Z,16.79
2019-02-17T19:51:47.073Z,16.77
2019-02-17T19:54:13.379Z,16.72
2019-02-17T19:56:40.056Z,16.71
2019-02-17T19:59:06.404Z,16.67
2019-02-17T20:01:34.299Z,16.63
2019-02-17T20:03:59.025Z,16.61
2019-02-17T20:06:25.338Z,16.59
2019-02-17T20:08:51.642Z,16.54
2019-02-17T20:11:17.948Z,16.52
2019-02-17T20:13:44.257Z,16.48
2019-02-17T20:16:10.705Z,16.45
2019-02-17T20:18:37.020Z,16.42
2019-02-17T20:21:03.391Z,16.39
2019-02-17T20:23:29.785Z,16.35
2019-02-17T20:25:57.899Z,16.34
2019-02-17T20:28:35.735Z,16.33
2019-02-17T20:30:48.673Z,16.30
2019-02-17T20:33:14.977Z,16.26
2019-02-17T20:35:41.348Z,16.23
2019-02-17T20:38:07.607Z,16.19
2019-02-17T20:40:33.912Z,16.15
2019-02-17T20:43:00.333Z,16.11
2019-02-17T20:45:26.640Z,16.07
2019-02-17T20:47:52.949Z,16.05
2019-02-17T20:50:19.269Z,16.02
2019-02-17T20:52:45.576Z,15.99
2019-02-17T20:55:11.884Z,15.97
2019-02-17T20:57:38.192Z,15.94
2019-02-17T21:00:04.512Z,15.92
2019-02-17T21:02:30.820Z,15.89
2019-02-17T21:04:57.480Z,15.85
2019-02-17T21:07:23.795Z,15.82
2019-02-17T21:09:50.096Z,15.79
2019-02-17T21:12:16.407Z,15.77
2019-02-17T21:14:42.717Z,15.73
2019-02-17T21:17:09.020Z,15.71
2019-02-17T21:19:35.380Z,15.67
2019-02-17T21:22:01.689Z,15.65
2019-02-17T21:24:28.003Z,15.63
2019-02-17T21:26:54.307Z,15.60
2019-02-17T21:29:20.645Z,15.57
2019-02-17T21:31:46.966Z,15.56
2019-02-17T21:34:13.273Z,15.51
2019-02-17T21:36:39.608Z,15.49
2019-02-17T21:39:05.957Z,15.48
2019-02-17T21:41:32.293Z,15.44
2019-02-17T21:43:58.607Z,15.40
2019-02-17T21:46:24.916Z,15.37
2019-02-17T21:48:51.223Z,15.34
2019-02-17T21:51:17.528Z,15.31
2019-02-17T21:53:43.839Z,15.28
2019-02-17T21:56:10.149Z,15.24
2019-02-17T21:58:36.463Z,15.17
2019-02-17T22:01:03.353Z,15.13
2019-02-17T22:03:29.090Z,15.11
2019-02-17T22:05:55.397Z,15.07
2019-02-17T22:08:21.713Z,15.00
2019-02-17T22:10:48.022Z,14.98
2019-02-17T22:13:14.334Z,14.92
2019-02-17T22:15:40.641Z,14.86
2019-02-17T22:18:06.949Z,14.86
2019-02-17T22:20:33.256Z,14.81
2019-02-17T22:22:59.563Z,14.76
2019-02-17T22:25:25.874Z,14.74
2019-02-17T22:27:52.180Z,14.71
2019-02-17T22:30:18.536Z,14.68
2019-02-17T22:32:44.846Z,14.64
2019-02-17T22:35:11.159Z,14.59
2019-02-17T22:37:37.475Z,14.57
2019-02-17T22:40:03.778Z,14.54
2019-02-17T22:42:30.086Z,14.48
2019-02-17T22:44:56.406Z,14.46
2019-02-17T22:47:22.712Z,14.45
2019-02-17T22:49:49.024Z,14.43
2019-02-17T22:52:15.330Z,14.40
2019-02-17T22:54:41.642Z,14.39
2019-02-17T22:57:07.950Z,14.33
2019-02-17T22:59:34.251Z,14.30
2019-02-17T23:02:00.558Z,14.29
2019-02-17T23:04:26.874Z,14.25
2019-02-17T23:06:54.365Z,14.22
2019-02-17T23:09:19.487Z,14.19
2019-02-17T23:11:45.798Z,14.19
2019-02-17T23:14:12.114Z,14.16
2019-02-17T23:16:38.421Z,14.12
2019-02-17T23:19:04.752Z,14.10
2019-02-17T23:21:31.062Z,14.07
2019-02-17T23:23:57.375Z,14.02
2019-02-17T23:26:23.683Z,14.00
2019-02-17T23:28:50.013Z,13.97
2019-02-17T23:31:16.321Z,13.94
2019-02-17T23:33:42.636Z,13.92
2019-02-17T23:36:08.983Z,13.90
2019-02-17T23:38:35.257Z,13.90
2019-02-17T23:41:01.575Z,13.87
2019-02-17T23:43:27.869Z,13.84
2019-02-17T23:45:54.182Z,13.81
2019-02-17T23:48:20.483Z,13.81
2019-02-17T23:50:46.799Z,13.77
2019-02-17T23:53:13.107Z,13.75
2019-02-17T23:55:39.436Z,13.72
2019-02-17T23:58:05.741Z,13.72
